Time;durP1;ratioP1;P1;durP2;ratioP2;P2;SDS_P1;SDS_P2;PMS_P1;PMS_P2;Temp;Humidity;BMP_temperature;BMP_pressure;BME280_temperature;BME280_humidity;BME280_pressure;Samples;Min_cycle;Max_cycle;Signal;HPM_P1;HPM_P2
2022/10/06 00:02:08;;;;;;;8.90;1.30;;;;;;;10.20;100.00;101756.97;5037137;28;20029;-75
2022/10/06 00:04:33;;;;;;;10.93;1.60;;;;;;;10.19;100.00;101751.66;5030801;28;20118;-75
2022/10/06 00:06:59;;;;;;;9.43;1.45;;;;;;;10.13;100.00;101766.59;5024420;28;20029;-75
2022/10/06 00:09:24;;;;;;;9.27;1.13;;;;;;;10.09;100.00;101768.22;5038104;28;20030;-75
2022/10/06 00:11:50;;;;;;;9.63;1.75;;;;;;;10.07;100.00;101769.31;5022441;28;20029;-75
2022/10/06 00:14:15;;;;;;;6.07;1.23;;;;;;;9.99;100.00;101775.31;5004912;28;20029;-75
2022/10/06 00:16:41;;;;;;;5.90;1.20;;;;;;;10.01;100.00;101775.06;5005302;28;20386;-75
2022/10/06 00:19:06;;;;;;;5.50;1.17;;;;;;;9.94;100.00;101778.03;5005071;28;20036;-75
2022/10/06 00:21:32;;;;;;;8.32;1.40;;;;;;;9.94;100.00;101786.34;5020872;28;20041;-75
2022/10/06 00:23:57;;;;;;;4.05;1.10;;;;;;;9.94;100.00;101780.78;5021364;28;20034;-75
2022/10/06 00:26:23;;;;;;;8.98;1.30;;;;;;;9.92;100.00;101780.25;5004786;28;20026;-75
2022/10/06 00:28:49;;;;;;;9.23;1.40;;;;;;;9.89;100.00;101783.53;5005090;28;20585;-75
2022/10/06 00:31:15;;;;;;;6.78;1.33;;;;;;;9.88;100.00;101784.63;5019698;28;20492;-75
2022/10/06 00:33:40;;;;;;;4.53;0.95;;;;;;;9.81;100.00;101793.16;5024508;28;20046;-75
2022/10/06 00:36:07;;;;;;;4.93;1.25;;;;;;;9.83;100.00;101787.31;5057206;28;20472;-76
2022/10/06 00:38:32;;;;;;;6.93;1.38;;;;;;;9.77;100.00;101796.69;5057563;28;20040;-75
2022/10/06 00:40:58;;;;;;;6.93;1.52;;;;;;;9.74;100.00;101791.66;5040804;28;20025;-75
2022/10/06 00:43:39;;;;;;;5.63;1.30;;;;;;;9.74;100.00;101803.56;5024685;28;20033;-74
2022/10/06 00:46:06;;;;;;;8.63;1.73;;;;;;;9.73;100.00;101804.69;5032655;28;20018;-75
2022/10/06 00:48:31;;;;;;;6.38;1.50;;;;;;;9.72;100.00;101797.47;5045954;28;20032;-75
2022/10/06 00:50:57;;;;;;;8.13;1.60;;;;;;;9.75;100.00;101804.41;5033860;28;20026;-75
2022/10/06 00:53:23;;;;;;;5.05;1.65;;;;;;;9.71;100.00;101806.03;5009102;28;20044;-75
2022/10/06 00:55:49;;;;;;;6.28;1.63;;;;;;;9.66;100.00;101806.78;5035089;28;20029;-75
2022/10/06 00:58:14;;;;;;;7.22;1.38;;;;;;;9.62;100.00;101809.25;5020628;28;20026;-76
2022/10/06 01:00:40;;;;;;;6.50;1.65;;;;;;;9.62;100.00;101816.75;5020708;28;20390;-75
2022/10/06 01:03:14;;;;;;;5.78;1.30;;;;;;;9.57;100.00;101809.19;5037200;28;20040;-75
2022/10/06 01:05:42;;;;;;;6.30;1.33;;;;;;;9.56;100.00;101809.44;5021250;28;20059;-75
2022/10/06 01:08:08;;;;;;;5.72;1.50;;;;;;;9.52;100.00;101809.09;4988262;28;20026;-75
2022/10/06 01:10:33;;;;;;;6.32;1.85;;;;;;;9.53;100.00;101818.28;5004102;28;20035;-75
2022/10/06 01:12:59;;;;;;;8.27;1.67;;;;;;;9.46;100.00;101815.66;5053648;28;20033;-75
2022/10/06 01:15:24;;;;;;;6.45;1.45;;;;;;;9.50;100.00;101816.00;5033558;28;20018;-75
2022/10/06 01:18:01;;;;;;;6.78;1.45;;;;;;;9.45;100.00;101819.53;5020576;28;20083;-76
2022/10/06 01:20:28;;;;;;;6.57;1.30;;;;;;;9.46;100.00;101820.38;5012336;28;20060;-75
2022/10/06 01:22:56;;;;;;;7.05;1.60;;;;;;;9.43;100.00;101821.72;4988261;28;20022;-75
2022/10/06 01:25:22;;;;;;;5.18;1.25;;;;;;;9.39;100.00;101826.13;4988333;28;20049;-75
2022/10/06 01:27:52;;;;;;;5.30;1.30;;;;;;;9.43;100.00;101827.28;5005172;28;20037;-75
2022/10/06 01:30:20;;;;;;;8.65;1.55;;;;;;;9.39;100.00;101835.28;5040580;28;20043;-75
2022/10/06 01:32:45;;;;;;;9.93;1.75;;;;;;;9.35;100.00;101830.47;5023946;28;20029;-75
2022/10/06 01:35:11;;;;;;;11.02;2.35;;;;;;;9.34;100.00;101835.19;5039632;28;20063;-75
2022/10/06 01:37:36;;;;;;;5.72;1.40;;;;;;;9.35;100.00;101827.69;5023497;28;20032;-75
2022/10/06 01:40:02;;;;;;;8.95;1.55;;;;;;;9.29;100.00;101831.50;5056251;28;20032;-75
2022/10/06 01:42:30;;;;;;;7.85;1.60;;;;;;;9.29;100.00;101834.25;5039903;28;20025;-75
2022/10/06 01:44:56;;;;;;;9.52;1.80;;;;;;;9.22;100.00;101831.69;5056846;28;20029;-75
2022/10/06 01:47:21;;;;;;;7.80;1.98;;;;;;;9.22;100.00;101830.81;5024309;28;20197;-75
2022/10/06 01:49:47;;;;;;;7.97;1.52;;;;;;;9.27;100.00;101837.28;4986077;28;20044;-75
2022/10/06 01:52:13;;;;;;;8.23;1.52;;;;;;;9.24;100.00;101834.19;5003548;28;20417;-75
2022/10/06 01:54:38;;;;;;;7.32;1.95;;;;;;;9.17;100.00;101837.13;5019920;28;20037;-75
2022/10/06 01:57:05;;;;;;;6.50;1.40;;;;;;;9.16;100.00;101839.06;5003401;28;20028;-75
2022/10/06 01:59:31;;;;;;;7.53;1.42;;;;;;;9.16;100.00;101838.22;5019917;28;20052;-75
2022/10/06 02:01:56;;;;;;;7.40;1.48;;;;;;;9.09;100.00;101841.16;4987372;28;20021;-75
2022/10/06 02:04:22;;;;;;;7.43;1.50;;;;;;;9.10;100.00;101839.22;5021549;28;20493;-75
2022/10/06 02:06:49;;;;;;;6.40;1.30;;;;;;;9.07;100.00;101837.78;5018895;28;20057;-75
2022/10/06 02:09:14;;;;;;;7.38;1.70;;;;;;;9.05;100.00;101841.91;4982824;28;20036;-75
2022/10/06 02:11:40;;;;;;;7.95;1.73;;;;;;;9.04;100.00;101848.56;5019426;28;20033;-75
2022/10/06 02:14:05;;;;;;;7.88;1.63;;;;;;;9.03;100.00;101847.72;5023443;28;20092;-75
2022/10/06 02:16:31;;;;;;;9.20;1.90;;;;;;;9.01;100.00;101849.88;5035714;28;20087;-75
2022/10/06 02:18:56;;;;;;;7.22;1.77;;;;;;;8.98;100.00;101847.63;5019261;28;20693;-75
2022/10/06 02:21:22;;;;;;;8.35;1.85;;;;;;;8.92;100.00;101848.63;5035388;28;20033;-75
2022/10/06 02:23:47;;;;;;;7.57;1.83;;;;;;;8.88;100.00;101848.28;5002739;28;20029;-75
2022/10/06 02:26:16;;;;;;;6.47;1.23;;;;;;;8.88;100.00;101851.03;5002736;28;20030;-75
2022/10/06 02:28:43;;;;;;;10.32;1.70;;;;;;;8.85;100.00;101847.94;5003477;28;20079;-75
2022/10/06 02:31:09;;;;;;;6.30;1.23;;;;;;;8.82;100.00;101845.66;4987111;28;20120;-75
2022/10/06 02:33:35;;;;;;;10.23;1.52;;;;;;;8.84;100.00;101846.28;5002790;28;20109;-75
2022/10/06 02:36:00;;;;;;;6.55;1.20;;;;;;;8.79;100.00;101843.41;5002580;28;20079;-75
2022/10/06 02:38:26;;;;;;;8.18;1.60;;;;;;;8.79;100.00;101848.94;5011760;28;20037;-75
2022/10/06 02:40:52;;;;;;;5.97;1.33;;;;;;;8.78;100.00;101850.03;5022223;28;20025;-75
2022/10/06 02:43:18;;;;;;;10.02;1.63;;;;;;;8.73;100.00;101842.47;5022266;28;20029;-75
2022/10/06 02:45:55;;;;;;;10.73;1.85;;;;;;;8.72;100.00;101843.56;5004086;28;20032;-75
2022/10/06 02:48:23;;;;;;;9.18;1.60;;;;;;;8.67;100.00;101851.78;5035538;28;20104;-75
2022/10/06 02:50:53;;;;;;;9.77;1.60;;;;;;;8.63;100.00;101848.66;5019569;28;20032;-75
2022/10/06 02:53:19;;;;;;;5.78;1.50;;;;;;;8.63;100.00;101847.81;5021964;28;20094;-75
2022/10/06 02:55:45;;;;;;;8.77;1.52;;;;;;;8.61;100.00;101856.38;5022302;28;20483;-75
2022/10/06 02:58:10;;;;;;;4.90;1.40;;;;;;;8.58;100.00;101856.03;5035121;28;20038;-75
2022/10/06 03:00:36;;;;;;;9.82;1.92;;;;;;;8.55;100.00;101859.28;4986154;28;20515;-75
2022/10/06 03:03:01;;;;;;;9.05;1.40;;;;;;;8.51;100.00;101858.94;5002342;28;20033;-75
2022/10/06 03:05:27;;;;;;;8.30;1.70;;;;;;;8.50;100.00;101862.81;4985789;28;20046;-76
2022/10/06 03:07:52;;;;;;;11.05;1.63;;;;;;;8.45;100.00;101863.56;5002297;28;20029;-75
2022/10/06 03:10:18;;;;;;;11.07;1.67;;;;;;;8.47;100.00;101866.09;5017876;28;20033;-75
2022/10/06 03:12:43;;;;;;;10.73;1.58;;;;;;;8.44;100.00;101866.56;5013602;28;20378;-75
2022/10/06 03:15:09;;;;;;;5.70;1.30;;;;;;;8.40;100.00;101871.75;5020199;28;20036;-76
2022/10/06 03:17:34;;;;;;;8.48;2.08;;;;;;;8.46;100.00;101878.22;5018459;28;20036;-75
2022/10/06 03:20:00;;;;;;;7.75;1.60;;;;;;;8.39;100.00;101881.16;4985574;28;20485;-75
2022/10/06 03:22:25;;;;;;;8.52;1.48;;;;;;;8.37;100.00;101879.69;5002196;28;20025;-75
2022/10/06 03:24:51;;;;;;;5.75;1.50;;;;;;;8.38;100.00;101878.59;5029839;28;20034;-75
2022/10/06 03:27:16;;;;;;;10.45;2.00;;;;;;;8.38;100.00;101881.34;5031501;28;20037;-75
2022/10/06 03:29:42;;;;;;;5.88;1.80;;;;;;;8.37;100.00;101866.69;5048367;28;20080;-75
2022/10/06 03:32:07;;;;;;;8.35;1.70;;;;;;;8.32;100.00;101874.03;5034810;28;20033;-75
2022/10/06 03:34:33;;;;;;;9.18;1.20;;;;;;;8.32;100.00;101879.56;5034484;28;20034;-75
2022/10/06 03:36:58;;;;;;;7.57;1.70;;;;;;;8.27;100.00;101881.16;4985703;28;20109;-75
2022/10/06 03:39:24;;;;;;;7.75;1.80;;;;;;;8.28;100.00;101882.84;5035012;28;20025;-75
2022/10/06 03:41:49;;;;;;;7.90;1.30;;;;;;;8.27;100.00;101891.38;5002028;28;20087;-75
2022/10/06 03:44:15;;;;;;;8.55;1.33;;;;;;;8.24;100.00;101884.41;5001869;28;20059;-75
2022/10/06 03:46:40;;;;;;;12.40;1.63;;;;;;;8.26;100.00;101889.69;5034786;28;20029;-75
2022/10/06 03:49:06;;;;;;;6.03;1.30;;;;;;;8.23;100.00;101888.25;5034695;28;20048;-75
2022/10/06 03:51:36;;;;;;;6.07;1.40;;;;;;;8.21;100.00;101901.50;5001403;28;20064;-75
2022/10/06 03:54:02;;;;;;;6.97;1.70;;;;;;;8.21;100.00;101895.13;5002027;28;20121;-75
2022/10/06 03:56:32;;;;;;;7.43;1.90;;;;;;;8.17;100.00;101900.31;5018471;28;20061;-75
2022/10/06 03:58:59;;;;;;;6.00;1.30;;;;;;;8.16;100.00;101912.47;5001842;28;20025;-75
2022/10/06 04:01:30;;;;;;;8.20;2.10;;;;;;;8.17;100.00;101913.31;5034593;28;20556;-75
2022/10/06 04:03:56;;;;;;;7.28;1.50;;;;;;;8.16;100.00;101906.94;5002086;28;20030;-75
2022/10/06 04:06:22;;;;;;;9.43;1.40;;;;;;;8.14;100.00;101909.09;5001308;28;20038;-75
2022/10/06 04:08:48;;;;;;;9.07;1.38;;;;;;;8.10;100.00;101918.97;5011885;28;20056;-75
2022/10/06 04:11:21;;;;;;;6.05;1.60;;;;;;;8.12;100.00;101921.50;5051069;28;20367;-75
2022/10/06 04:13:50;;;;;;;7.07;1.60;;;;;;;8.10;100.00;101923.66;5036308;28;20100;-75
2022/10/06 04:16:23;;;;;;;6.68;1.23;;;;;;;8.05;100.00;101924.38;5005126;28;20036;-75
2022/10/06 04:18:50;;;;;;;7.05;1.20;;;;;;;8.09;100.00;101930.28;5012561;28;20060;-75
2022/10/06 04:21:16;;;;;;;5.75;1.40;;;;;;;8.07;100.00;101936.06;5006762;28;20061;-76
2022/10/06 04:23:41;;;;;;;5.15;1.50;;;;;;;8.04;100.00;101931.00;5005054;28;20430;-75
2022/10/06 04:26:15;;;;;;;7.50;1.67;;;;;;;8.03;100.00;101941.25;5005017;28;20030;-75
2022/10/06 04:28:41;;;;;;;8.40;1.33;;;;;;;8.05;100.00;101939.09;4997491;28;20025;-76
2022/10/06 04:31:14;;;;;;;5.38;1.50;;;;;;;8.02;100.00;101935.94;5041302;28;20090;-75
2022/10/06 04:33:40;;;;;;;8.77;1.60;;;;;;;7.99;100.00;101941.97;5041417;28;20389;-75
2022/10/06 04:36:06;;;;;;;8.63;1.52;;;;;;;7.99;100.00;101936.44;5040559;28;20079;-76
2022/10/06 04:38:32;;;;;;;8.85;1.83;;;;;;;7.98;100.00;101938.34;5024716;28;20033;-75
2022/10/06 04:41:12;;;;;;;10.50;1.75;;;;;;;7.98;100.00;101934.75;5041024;28;20162;-76
2022/10/06 04:43:38;;;;;;;9.65;1.77;;;;;;;7.96;100.00;101946.03;5041288;28;20033;-75
2022/10/06 04:46:03;;;;;;;6.90;1.23;;;;;;;7.91;100.00;101947.84;5016704;28;20026;-75
2022/10/06 04:48:29;;;;;;;7.45;1.55;;;;;;;7.95;100.00;101949.06;5020511;28;20033;-75
2022/10/06 04:51:05;;;;;;;7.97;1.60;;;;;;;7.93;100.00;101945.69;5020837;28;20036;-75
2022/10/06 04:53:31;;;;;;;7.15;1.15;;;;;;;7.94;100.00;101947.38;5020821;28;20048;-74
2022/10/06 04:56:04;;;;;;;8.70;1.40;;;;;;;7.91;100.00;101948.72;5004515;28;20500;-75
2022/10/06 04:58:32;;;;;;;9.13;1.60;;;;;;;7.88;100.00;101949.19;5002099;28;20028;-75
2022/10/06 05:00:59;;;;;;;7.60;1.55;;;;;;;7.90;100.00;101951.72;5050354;28;20087;-75
2022/10/06 05:03:24;;;;;;;7.68;1.50;;;;;;;7.88;100.00;101949.19;5070697;28;20022;-75
2022/10/06 05:05:50;;;;;;;6.50;1.33;;;;;;;7.86;100.00;101945.84;5023501;28;20094;-75
2022/10/06 05:08:15;;;;;;;8.13;1.38;;;;;;;7.85;100.00;101949.66;5023801;28;20036;-75
2022/10/06 05:10:41;;;;;;;7.07;1.60;;;;;;;7.80;100.00;101947.63;5035207;28;20068;-75
2022/10/06 05:13:08;;;;;;;7.60;1.73;;;;;;;7.82;100.00;101950.97;5020578;28;20029;-75
2022/10/06 05:15:33;;;;;;;6.97;1.80;;;;;;;7.82;100.00;101959.28;4988247;28;20021;-75
2022/10/06 05:17:59;;;;;;;6.35;1.25;;;;;;;7.80;100.00;101955.94;5034297;28;20377;-75
2022/10/06 05:20:24;;;;;;;6.07;1.42;;;;;;;7.76;100.00;101960.25;5012507;28;20064;-75
2022/10/06 05:22:50;;;;;;;8.27;1.92;;;;;;;7.73;100.00;101969.03;5027561;28;20037;-75
2022/10/06 05:25:15;;;;;;;7.50;1.95;;;;;;;7.73;100.00;101969.03;5010720;28;20036;-75
2022/10/06 05:27:41;;;;;;;6.93;1.70;;;;;;;7.71;100.00;101973.94;5023830;28;20040;-75
2022/10/06 05:30:07;;;;;;;7.78;1.70;;;;;;;7.65;100.00;101968.53;5039908;28;20025;-75
2022/10/06 05:32:32;;;;;;;8.15;1.50;;;;;;;7.72;100.00;101977.59;5023734;28;20032;-75
2022/10/06 05:34:58;;;;;;;5.45;1.35;;;;;;;7.72;100.00;101977.59;5056168;28;20033;-75
2022/10/06 05:37:24;;;;;;;6.85;1.27;;;;;;;7.68;100.00;101985.50;5039817;28;20025;-75
2022/10/06 05:39:49;;;;;;;2.97;1.20;;;;;;;7.63;100.00;101979.81;5023510;28;20037;-75
2022/10/06 05:42:15;;;;;;;7.05;1.30;;;;;;;7.62;100.00;101989.22;5039733;28;20032;-75
2022/10/06 05:44:40;;;;;;;4.88;1.30;;;;;;;7.61;100.00;101987.53;5005990;28;20033;-75
2022/10/06 05:47:06;;;;;;;5.07;1.10;;;;;;;7.61;100.00;101993.06;5003379;28;20033;-75
2022/10/06 05:49:31;;;;;;;3.47;1.10;;;;;;;7.56;100.00;101985.47;5019474;28;20411;-75
2022/10/06 05:51:57;;;;;;;5.10;1.50;;;;;;;7.58;100.00;101993.56;5003440;28;20478;-75
2022/10/06 05:54:22;;;;;;;5.20;1.15;;;;;;;7.53;100.00;101993.41;5003459;28;20041;-75
2022/10/06 05:56:48;;;;;;;5.60;1.02;;;;;;;7.50;100.00;102000.25;5009457;28;20033;-75
2022/10/06 05:59:14;;;;;;;7.57;1.38;;;;;;;7.48;100.00;101998.81;5036146;28;20601;-75
2022/10/06 06:01:40;;;;;;;5.95;1.20;;;;;;;7.47;100.00;102002.66;5036681;28;20021;-75
2022/10/06 06:04:07;;;;;;;4.28;1.35;;;;;;;7.47;100.00;102006.25;5019720;28;20026;-76
2022/10/06 06:06:34;;;;;;;6.82;1.50;;;;;;;7.45;100.00;101993.75;5035532;28;20041;-75
2022/10/06 06:09:02;;;;;;;8.15;1.60;;;;;;;7.41;100.00;102003.59;5001296;28;20543;-75
2022/10/06 06:11:30;;;;;;;7.13;1.55;;;;;;;7.39;100.00;101999.16;5064886;28;20033;-75
2022/10/06 06:13:57;;;;;;;5.65;1.50;;;;;;;7.44;100.00;102000.34;5030874;28;20041;-75
2022/10/06 06:16:22;;;;;;;6.57;1.42;;;;;;;7.38;100.00;102008.53;5055886;28;20071;-69
2022/10/06 06:18:48;;;;;;;6.75;1.60;;;;;;;7.32;100.00;102005.84;5022553;28;20037;-71
2022/10/06 06:21:13;;;;;;;7.00;1.85;;;;;;;7.35;100.00;102019.19;5018000;28;20093;-70
2022/10/06 06:23:45;;;;;;;5.18;1.60;;;;;;;7.32;100.00;102014.16;5002906;28;20030;-70
2022/10/06 06:26:17;;;;;;;8.90;1.70;;;;;;;7.34;100.00;102023.88;5019381;28;20026;-76
2022/10/06 06:28:45;;;;;;;7.35;1.75;;;;;;;7.34;100.00;102015.59;5019415;28;20545;-75
2022/10/06 06:31:11;;;;;;;5.28;1.58;;;;;;;7.34;100.00;102025.81;5003425;28;20116;-75
2022/10/06 06:33:37;;;;;;;6.72;1.42;;;;;;;7.37;100.00;102014.28;5035666;28;20652;-75
2022/10/06 06:36:13;;;;;;;8.48;1.65;;;;;;;7.31;100.00;102018.84;5035979;28;20467;-75
2022/10/06 06:38:39;;;;;;;5.75;2.00;;;;;;;7.33;100.00;102018.59;5002481;28;20033;-75
2022/10/06 06:41:12;;;;;;;7.63;1.65;;;;;;;7.37;100.00;102019.81;5035121;28;20057;-76
2022/10/06 06:43:38;;;;;;;6.35;1.60;;;;;;;7.41;100.00;102020.16;5019061;28;20041;-76
2022/10/06 06:46:04;;;;;;;6.70;1.50;;;;;;;7.42;100.00;102033.78;5002394;28;20032;-76
2022/10/06 06:48:29;;;;;;;9.25;1.52;;;;;;;7.44;100.00;102028.84;5050849;28;20030;-76
2022/10/06 06:50:56;;;;;;;8.18;1.45;;;;;;;7.47;100.00;102035.84;5022800;28;20037;-76
2022/10/06 06:53:22;;;;;;;7.53;1.48;;;;;;;7.50;100.00;102038.13;5027004;28;20044;-75
2022/10/06 06:55:51;;;;;;;8.85;1.58;;;;;;;7.56;100.00;102049.06;4990735;28;20497;-75
2022/10/06 06:58:18;;;;;;;10.95;1.65;;;;;;;7.59;100.00;102043.06;5022827;28;20040;-76
2022/10/06 07:00:43;;;;;;;5.13;1.92;;;;;;;7.67;100.00;102046.59;5050593;28;20507;-76
2022/10/06 07:03:13;;;;;;;9.45;1.73;;;;;;;7.72;100.00;102044.78;5002308;28;20026;-76
2022/10/06 07:05:38;;;;;;;8.50;1.75;;;;;;;7.82;100.00;102044.19;5035706;28;20069;-76
2022/10/06 07:08:08;;;;;;;5.90;1.23;;;;;;;7.90;100.00;102048.53;5002340;28;20034;-76
2022/10/06 07:10:35;;;;;;;4.90;1.33;;;;;;;7.97;100.00;102052.88;5030807;28;20029;-76
2022/10/06 07:13:01;;;;;;;7.28;1.60;;;;;;;8.06;100.00;102045.91;5030857;28;20515;-76
2022/10/06 07:26:22;;;;;;;6.32;1.25;;;;;;;8.62;100.00;102057.47;5028819;28;20026;-76
2022/10/06 07:28:48;;;;;;;7.45;1.30;;;;;;;8.75;100.00;102055.50;4985975;28;20029;-77
2022/10/06 07:31:17;;;;;;;4.28;1.25;;;;;;;8.86;100.00;102062.94;5018335;28;20477;-76
2022/10/06 07:33:43;;;;;;;5.13;1.40;;;;;;;8.99;100.00;102070.97;5034971;28;20037;-76
2022/10/06 07:36:10;;;;;;;3.83;1.17;;;;;;;9.12;100.00;102081.78;5001867;28;20117;-76
2022/10/06 07:38:36;;;;;;;3.65;1.15;;;;;;;9.24;100.00;102081.75;5002497;28;20072;-76
2022/10/06 07:41:01;;;;;;;3.80;1.10;;;;;;;9.37;100.00;102075.91;5018204;28;20031;-76
2022/10/06 07:43:27;;;;;;;5.82;1.63;;;;;;;9.51;100.00;102076.44;5018432;28;20541;-76
2022/10/06 07:45:52;;;;;;;7.57;1.02;;;;;;;9.65;100.00;102084.47;5018066;28;20037;-76
2022/10/06 07:48:19;;;;;;;7.63;1.40;;;;;;;9.78;100.00;102085.00;5036294;28;20033;-76
2022/10/06 07:50:47;;;;;;;6.88;1.55;;;;;;;9.93;100.00;102095.50;5021832;28;20401;-76
2022/10/06 07:53:14;;;;;;;4.35;1.42;;;;;;;10.07;100.00;102090.47;5011196;28;20452;-76
2022/10/06 07:55:44;;;;;;;7.53;1.33;;;;;;;10.21;100.00;102090.97;5005692;28;20027;-76
2022/10/06 07:58:16;;;;;;;5.85;1.40;;;;;;;10.37;100.00;102098.47;5000931;28;20086;-76
2022/10/06 08:00:42;;;;;;;5.65;1.42;;;;;;;10.51;100.00;102099.81;5020768;28;20028;-76
2022/10/06 08:03:08;;;;;;;6.45;1.60;;;;;;;10.64;100.00;102098.63;5021748;28;20548;-76
2022/10/06 08:05:34;;;;;;;6.28;1.60;;;;;;;10.78;100.00;102104.66;5021424;28;20379;-76
2022/10/06 08:07:59;;;;;;;6.72;1.50;;;;;;;10.93;100.00;102104.84;5000636;28;20028;-76
2022/10/06 08:10:25;;;;;;;7.60;1.63;;;;;;;11.08;100.00;102103.34;5022037;28;20484;-76
2022/10/06 08:12:50;;;;;;;7.80;1.70;;;;;;;11.21;100.00;102114.09;5054583;28;20034;-76
2022/10/06 08:15:17;;;;;;;9.40;1.80;;;;;;;11.35;100.00;102104.25;5039538;28;20521;-76
2022/10/06 08:17:42;;;;;;;8.05;1.88;;;;;;;11.51;100.00;102118.34;5041611;28;20025;-77
2022/10/06 08:20:09;;;;;;;9.93;2.08;;;;;;;11.66;100.00;102121.28;5032300;28;20064;-76
2022/10/06 08:22:37;;;;;;;6.18;1.55;;;;;;;11.81;100.00;102123.34;5038028;28;20032;-76
2022/10/06 08:25:03;;;;;;;7.95;1.65;;;;;;;11.96;100.00;102126.34;5005892;28;20374;-76
2022/10/06 08:27:29;;;;;;;7.75;1.58;;;;;;;12.12;100.00;102124.53;5000769;28;20057;-77
2022/10/06 08:29:54;;;;;;;4.63;1.30;;;;;;;12.26;100.00;102117.41;5057802;28;20036;-76
2022/10/06 08:32:21;;;;;;;7.43;1.50;;;;;;;12.44;100.00;102120.88;5049187;28;20033;-76
2022/10/06 08:34:49;;;;;;;8.60;1.65;;;;;;;12.60;100.00;102119.88;5037440;28;20057;-76
2022/10/06 08:37:15;;;;;;;6.00;1.63;;;;;;;12.74;100.00;102125.84;5021436;28;20057;-77
2022/10/06 08:39:44;;;;;;;7.45;1.95;;;;;;;12.90;100.00;102123.97;5024119;28;20064;-76
2022/10/06 08:42:13;;;;;;;10.93;1.50;;;;;;;13.07;100.00;102113.47;5074819;28;20036;-76
2022/10/06 08:44:46;;;;;;;8.57;1.85;;;;;;;13.24;100.00;102118.00;5038232;28;20742;-76
2022/10/06 08:47:17;;;;;;;8.05;1.60;;;;;;;13.40;100.00;102117.81;5031582;28;20022;-76
2022/10/06 08:49:45;;;;;;;7.93;2.10;;;;;;;13.55;100.00;102125.38;4988444;28;20029;-76
2022/10/06 08:52:25;;;;;;;11.48;2.10;;;;;;;13.72;100.00;102121.50;4988450;28;20026;-76
2022/10/06 08:55:28;;;;;;;15.05;2.88;;;;;;;13.91;100.00;102133.84;5005734;28;20124;-76
2022/10/06 08:58:31;;;;;;;13.23;2.72;;;;;;;14.08;100.00;102134.41;5020719;28;20037;-76
2022/10/06 09:01:06;;;;;;;9.07;2.08;;;;;;;14.23;100.00;102127.13;5004622;28;20041;-76
2022/10/06 09:03:32;;;;;;;14.35;2.35;;;;;;;14.37;100.00;102133.84;5021390;28;20030;-77
2022/10/06 09:06:05;;;;;;;15.88;2.40;;;;;;;14.52;100.00;102133.88;4987800;28;20615;-76
2022/10/06 09:08:47;;;;;;;11.80;2.28;;;;;;;14.67;100.00;102135.81;5004093;28;20053;-76
2022/10/06 09:11:26;;;;;;;13.45;2.25;;;;;;;14.80;100.00;102142.78;5032354;28;20081;-76
2022/10/06 09:14:02;;;;;;;7.55;1.60;;;;;;;14.96;100.00;102133.22;5041015;28;20060;-76
2022/10/06 09:16:31;;;;;;;11.10;1.90;;;;;;;15.11;100.00;102135.13;5037353;28;20025;-76
2022/10/06 09:19:18;;;;;;;15.13;2.53;;;;;;;15.24;100.00;102142.09;5004331;28;20029;-76
2022/10/06 09:21:46;;;;;;;13.50;2.30;;;;;;;15.36;100.00;102144.56;5037608;28;20025;-76
2022/10/06 09:24:14;;;;;;;15.80;2.35;;;;;;;15.43;100.00;102142.25;5036943;28;20493;-76
2022/10/06 09:26:42;;;;;;;15.85;2.65;;;;;;;15.54;100.00;102143.06;5036928;28;20112;-76
2022/10/06 09:29:08;;;;;;;15.57;2.50;;;;;;;15.64;100.00;102149.44;5016533;28;20060;-76
2022/10/06 09:31:48;;;;;;;13.43;2.80;;;;;;;15.72;100.00;102153.63;5023700;28;20032;-76
2022/10/06 09:34:35;;;;;;;17.65;2.83;;;;;;;15.77;100.00;102150.81;5024825;28;20071;-75
2022/10/06 09:37:02;;;;;;;14.35;2.58;;;;;;;15.86;100.00;102151.88;5041410;28;20025;-76
2022/10/06 09:39:35;;;;;;;13.60;2.70;;;;;;;15.93;100.00;102153.50;5037946;28;20478;-76
2022/10/06 09:42:12;;;;;;;18.98;2.90;;;;;;;15.98;100.00;102154.31;5018504;28;20057;-75
2022/10/06 09:44:43;;;;;;;15.70;2.53;;;;;;;15.98;99.43;102153.47;5004522;28;20032;-75
2022/10/06 09:47:27;;;;;;;21.33;2.83;;;;;;;16.09;98.58;102155.06;4987908;28;20029;-75
2022/10/06 09:50:11;;;;;;;18.88;3.25;;;;;;;16.17;98.75;102156.44;5019411;28;20029;-76
2022/10/06 09:52:39;;;;;;;19.63;2.78;;;;;;;16.17;97.97;102159.22;5019776;28;20026;-76
2022/10/06 09:55:12;;;;;;;16.95;2.72;;;;;;;16.22;97.64;102162.81;4987159;28;20482;-76
2022/10/06 09:57:38;;;;;;;22.27;2.95;;;;;;;16.33;97.81;102169.19;4987296;28;20021;-76
2022/10/06 10:00:25;;;;;;;17.45;2.33;;;;;;;16.39;96.93;102165.22;5003445;28;20385;-76
2022/10/06 10:02:58;;;;;;;14.60;2.55;;;;;;;16.40;94.60;102164.06;5006278;28;20478;-76
2022/10/06 10:05:28;;;;;;;13.73;2.15;;;;;;;16.49;94.84;102153.06;5003345;28;20069;-76
2022/10/06 10:08:17;;;;;;;22.48;3.00;;;;;;;16.56;95.09;102150.75;4987179;28;20030;-76
2022/10/06 10:10:42;;;;;;;14.38;2.10;;;;;;;16.63;94.58;102154.06;4986738;28;20101;-76
2022/10/06 10:13:23;;;;;;;17.30;2.47;;;;;;;16.71;94.27;102155.38;5032101;28;20033;-77
2022/10/06 10:15:56;;;;;;;17.60;2.83;;;;;;;16.76;93.27;102152.53;5019452;28;20486;-77
2022/10/06 10:18:26;;;;;;;19.88;2.45;;;;;;;16.84;91.98;102151.09;5003374;28;20059;-77
2022/10/06 10:20:54;;;;;;;19.17;2.92;;;;;;;16.96;92.32;102146.72;5028413;28;20481;-77
2022/10/06 10:23:34;;;;;;;17.15;2.20;;;;;;;17.05;91.38;102149.72;5016164;28;20049;-77
2022/10/06 10:26:25;;;;;;;16.88;2.63;;;;;;;17.17;91.15;102144.53;5033759;28;20155;-77
2022/10/06 10:29:20;;;;;;;15.32;1.85;;;;;;;17.27;91.83;102139.91;5023832;28;20069;-77
2022/10/06 10:31:52;;;;;;;18.42;2.53;;;;;;;17.35;90.03;102142.88;5014991;28;20096;-77
2022/10/06 10:34:31;;;;;;;16.35;2.30;;;;;;;17.41;88.76;102146.47;5035447;28;20583;-77
2022/10/06 10:36:59;;;;;;;14.68;2.80;;;;;;;17.48;86.79;102141.31;5029188;28;20029;-77
2022/10/06 10:39:34;;;;;;;10.35;2.10;;;;;;;17.57;88.81;102130.25;5039050;28;20106;-76
2022/10/06 10:42:01;;;;;;;12.60;2.20;;;;;;;17.60;87.75;102133.28;5019330;28;20029;-77
2022/10/06 10:44:40;;;;;;;15.65;2.65;;;;;;;17.68;88.29;102133.75;5055771;28;20021;-77
2022/10/06 10:47:14;;;;;;;12.07;1.90;;;;;;;17.68;89.27;102128.13;5020567;28;20423;-77
2022/10/06 10:49:42;;;;;;;14.57;2.28;;;;;;;17.68;89.84;102128.13;5055815;28;20080;-77
2022/10/06 10:52:19;;;;;;;12.75;1.88;;;;;;;17.65;89.93;102129.56;5018723;28;20025;-76
2022/10/06 10:55:20;;;;;;;11.73;1.98;;;;;;;17.63;89.96;102123.41;5019082;28;20418;-76
2022/10/06 10:57:46;;;;;;;13.30;2.08;;;;;;;17.58;90.05;102112.28;5018945;28;20084;-76
2022/10/06 11:00:24;;;;;;;12.48;1.98;;;;;;;17.53;90.02;102115.97;5009891;28;20033;-76
2022/10/06 11:02:54;;;;;;;12.43;2.08;;;;;;;17.50;89.96;102122.22;5001059;28;20041;-76
2022/10/06 11:05:19;;;;;;;13.55;2.40;;;;;;;17.44;89.29;102129.03;5032648;28;20091;-76
2022/10/06 11:07:46;;;;;;;9.00;2.15;;;;;;;17.43;88.20;102121.72;5035350;28;20038;-76
2022/10/06 11:10:21;;;;;;;9.73;1.98;;;;;;;17.43;86.68;102119.75;5034853;28;20039;-76
2022/10/06 11:13:02;;;;;;;9.98;1.73;;;;;;;17.47;83.77;102122.81;5068645;28;20026;-76
2022/10/06 11:15:45;;;;;;;9.18;1.92;;;;;;;17.53;84.37;102115.97;5051737;28;20021;-76
2022/10/06 11:18:24;;;;;;;12.07;2.13;;;;;;;17.54;84.05;102116.81;5035035;28;20033;-76
2022/10/06 11:21:12;;;;;;;16.00;2.28;;;;;;;17.64;80.46;102113.88;4998836;28;20495;-76
2022/10/06 11:24:14;;;;;;;10.85;1.40;;;;;;;17.77;80.44;102115.91;5022352;28;20030;-76
2022/10/06 11:27:08;;;;;;;10.02;1.75;;;;;;;17.94;82.49;102115.41;5021128;28;20087;-76
2022/10/06 11:29:58;;;;;;;8.98;1.40;;;;;;;18.03;80.75;102119.19;5040174;28;20478;-76
2022/10/06 11:32:48;;;;;;;12.63;1.55;;;;;;;18.09;79.30;102109.53;5038964;28;20040;-76
2022/10/06 11:35:21;;;;;;;13.23;2.00;;;;;;;18.18;79.34;102115.28;5008194;28;20037;-76
2022/10/06 11:38:12;;;;;;;9.98;1.58;;;;;;;18.22;79.68;102107.91;5031182;28;20036;-76
2022/10/06 11:41:07;;;;;;;11.00;1.33;;;;;;;18.24;78.64;102102.81;5033447;28;20065;-77
2022/10/06 11:43:53;;;;;;;11.23;1.48;;;;;;;18.25;78.47;102103.66;5042617;28;20022;-77